sensor_id;sensor_type;location;lat;lon;timestamp;P1;durP1;ratioP1;P2;durP2;ratioP2
3253;SDS011;1639;42.804;23.342;2023-12-22T00:01:11;28.87;;;23.57;;
3253;SDS011;1639;42.804;23.342;2023-12-22T00:03:37;30.93;;;24.80;;
3253;SDS011;1639;42.804;23.342;2023-12-22T00:06:02;34.60;;;25.10;;
3253;SDS011;1639;42.804;23.342;2023-12-22T00:08:28;25.17;;;17.47;;
3253;SDS011;1639;42.804;23.342;2023-12-22T00:10:53;24.30;;;18.33;;
3253;SDS011;1639;42.804;23.342;2023-12-22T00:13:18;26.23;;;15.83;;
3253;SDS011;1639;42.804;23.342;2023-12-22T00:15:44;15.57;;;13.20;;
3253;SDS011;1639;42.804;23.342;2023-12-22T00:18:09;24.20;;;13.70;;
3253;SDS011;1639;42.804;23.342;2023-12-22T00:20:35;26.23;;;16.17;;
3253;SDS011;1639;42.804;23.342;2023-12-22T00:23:00;19.33;;;17.17;;
3253;SDS011;1639;42.804;23.342;2023-12-22T00:25:25;26.30;;;17.93;;
3253;SDS011;1639;42.804;23.342;2023-12-22T00:27:51;24.47;;;15.00;;
3253;SDS011;1639;42.804;23.342;2023-12-22T00:30:17;22.17;;;15.07;;
3253;SDS011;1639;42.804;23.342;2023-12-22T00:32:42;23.03;;;14.30;;
3253;SDS011;1639;42.804;23.342;2023-12-22T00:35:07;28.00;;;12.60;;
3253;SDS011;1639;42.804;23.342;2023-12-22T00:37:33;21.30;;;14.03;;
3253;SDS011;1639;42.804;23.342;2023-12-22T00:39:59;24.80;;;15.37;;
3253;SDS011;1639;42.804;23.342;2023-12-22T00:42:24;21.30;;;11.07;;
3253;SDS011;1639;42.804;23.342;2023-12-22T00:44:50;24.17;;;14.77;;
3253;SDS011;1639;42.804;23.342;2023-12-22T00:47:16;17.87;;;14.20;;
3253;SDS011;1639;42.804;23.342;2023-12-22T00:49:41;26.20;;;13.57;;
3253;SDS011;1639;42.804;23.342;2023-12-22T00:52:07;14.77;;;11.77;;
3253;SDS011;1639;42.804;23.342;2023-12-22T00:54:32;20.13;;;14.73;;
3253;SDS011;1639;42.804;23.342;2023-12-22T00:56:57;16.30;;;11.70;;
3253;SDS011;1639;42.804;23.342;2023-12-22T00:59:23;19.07;;;13.20;;
3253;SDS011;1639;42.804;23.342;2023-12-22T01:01:49;16.17;;;11.73;;
3253;SDS011;1639;42.804;23.342;2023-12-22T01:04:14;21.20;;;13.47;;
3253;SDS011;1639;42.804;23.342;2023-12-22T01:06:40;15.77;;;12.03;;
3253;SDS011;1639;42.804;23.342;2023-12-22T01:09:05;26.37;;;13.23;;
3253;SDS011;1639;42.804;23.342;2023-12-22T01:11:31;20.50;;;14.77;;
3253;SDS011;1639;42.804;23.342;2023-12-22T01:13:56;17.07;;;13.27;;
3253;SDS011;1639;42.804;23.342;2023-12-22T01:16:22;18.27;;;13.50;;
3253;SDS011;1639;42.804;23.342;2023-12-22T01:18:48;15.13;;;9.93;;
3253;SDS011;1639;42.804;23.342;2023-12-22T01:21:15;16.73;;;12.50;;
3253;SDS011;1639;42.804;23.342;2023-12-22T01:23:44;18.00;;;12.30;;
3253;SDS011;1639;42.804;23.342;2023-12-22T01:26:09;24.70;;;12.23;;
3253;SDS011;1639;42.804;23.342;2023-12-22T01:28:35;16.20;;;11.00;;
3253;SDS011;1639;42.804;23.342;2023-12-22T01:31:00;21.73;;;10.57;;
3253;SDS011;1639;42.804;23.342;2023-12-22T01:33:26;21.53;;;12.90;;
3253;SDS011;1639;42.804;23.342;2023-12-22T01:35:51;22.70;;;17.70;;
3253;SDS011;1639;42.804;23.342;2023-12-22T01:38:17;37.23;;;23.50;;
3253;SDS011;1639;42.804;23.342;2023-12-22T01:40:42;18.50;;;15.20;;
3253;SDS011;1639;42.804;23.342;2023-12-22T01:43:08;22.23;;;15.27;;
3253;SDS011;1639;42.804;23.342;2023-12-22T01:45:33;19.13;;;13.47;;
3253;SDS011;1639;42.804;23.342;2023-12-22T01:47:59;23.63;;;14.90;;
3253;SDS011;1639;42.804;23.342;2023-12-22T01:50:25;26.10;;;17.90;;
3253;SDS011;1639;42.804;23.342;2023-12-22T01:52:51;26.53;;;15.80;;
3253;SDS011;1639;42.804;23.342;2023-12-22T01:55:17;22.93;;;18.77;;
3253;SDS011;1639;42.804;23.342;2023-12-22T01:57:43;18.43;;;15.00;;
3253;SDS011;1639;42.804;23.342;2023-12-22T02:00:09;31.90;;;15.87;;
3253;SDS011;1639;42.804;23.342;2023-12-22T02:02:36;25.73;;;15.20;;
3253;SDS011;1639;42.804;23.342;2023-12-22T02:05:03;16.30;;;13.47;;
3253;SDS011;1639;42.804;23.342;2023-12-22T02:07:29;18.73;;;13.77;;
3253;SDS011;1639;42.804;23.342;2023-12-22T02:09:54;31.90;;;13.80;;
3253;SDS011;1639;42.804;23.342;2023-12-22T02:12:20;19.03;;;12.03;;
3253;SDS011;1639;42.804;23.342;2023-12-22T02:14:46;41.97;;;15.77;;
3253;SDS011;1639;42.804;23.342;2023-12-22T02:17:14;13.53;;;12.00;;
3253;SDS011;1639;42.804;23.342;2023-12-22T02:19:47;25.57;;;16.70;;
3253;SDS011;1639;42.804;23.342;2023-12-22T02:22:13;24.33;;;12.70;;
3253;SDS011;1639;42.804;23.342;2023-12-22T02:24:39;18.77;;;11.60;;
3253;SDS011;1639;42.804;23.342;2023-12-22T02:27:09;20.83;;;13.03;;
3253;SDS011;1639;42.804;23.342;2023-12-22T02:29:49;19.63;;;12.00;;
3253;SDS011;1639;42.804;23.342;2023-12-22T02:32:27;14.60;;;12.20;;
3253;SDS011;1639;42.804;23.342;2023-12-22T02:34:56;20.87;;;13.83;;
3253;SDS011;1639;42.804;23.342;2023-12-22T02:37:23;15.90;;;12.80;;
3253;SDS011;1639;42.804;23.342;2023-12-22T02:39:50;20.80;;;15.47;;
3253;SDS011;1639;42.804;23.342;2023-12-22T02:42:16;18.60;;;14.33;;
3253;SDS011;1639;42.804;23.342;2023-12-22T02:44:42;15.60;;;11.00;;
3253;SDS011;1639;42.804;23.342;2023-12-22T02:47:08;16.33;;;12.17;;
3253;SDS011;1639;42.804;23.342;2023-12-22T02:49:33;25.73;;;13.40;;
3253;SDS011;1639;42.804;23.342;2023-12-22T02:51:58;23.30;;;12.40;;
3253;SDS011;1639;42.804;23.342;2023-12-22T02:54:24;17.80;;;11.40;;
3253;SDS011;1639;42.804;23.342;2023-12-22T02:56:49;31.27;;;17.20;;
3253;SDS011;1639;42.804;23.342;2023-12-22T02:59:14;18.67;;;15.80;;
3253;SDS011;1639;42.804;23.342;2023-12-22T03:01:40;20.43;;;15.00;;
3253;SDS011;1639;42.804;23.342;2023-12-22T03:04:05;23.17;;;14.00;;
3253;SDS011;1639;42.804;23.342;2023-12-22T03:06:30;24.17;;;13.33;;
3253;SDS011;1639;42.804;23.342;2023-12-22T03:08:56;23.70;;;13.63;;
3253;SDS011;1639;42.804;23.342;2023-12-22T03:11:21;22.07;;;15.47;;
3253;SDS011;1639;42.804;23.342;2023-12-22T03:13:46;28.63;;;19.03;;
3253;SDS011;1639;42.804;23.342;2023-12-22T03:16:12;52.60;;;27.03;;
3253;SDS011;1639;42.804;23.342;2023-12-22T03:18:38;33.07;;;20.27;;
3253;SDS011;1639;42.804;23.342;2023-12-22T03:21:04;19.00;;;15.23;;
3253;SDS011;1639;42.804;23.342;2023-12-22T03:23:30;16.13;;;11.60;;
3253;SDS011;1639;42.804;23.342;2023-12-22T03:25:55;20.27;;;12.30;;
3253;SDS011;1639;42.804;23.342;2023-12-22T03:28:21;55.73;;;17.13;;
3253;SDS011;1639;42.804;23.342;2023-12-22T03:30:46;21.60;;;12.97;;
3253;SDS011;1639;42.804;23.342;2023-12-22T03:33:11;14.07;;;11.20;;
3253;SDS011;1639;42.804;23.342;2023-12-22T03:35:37;15.50;;;11.10;;
3253;SDS011;1639;42.804;23.342;2023-12-22T03:38:02;17.40;;;11.10;;
3253;SDS011;1639;42.804;23.342;2023-12-22T03:40:28;23.10;;;13.37;;
3253;SDS011;1639;42.804;23.342;2023-12-22T03:42:54;35.47;;;14.63;;
3253;SDS011;1639;42.804;23.342;2023-12-22T03:45:20;27.23;;;15.57;;
3253;SDS011;1639;42.804;23.342;2023-12-22T03:47:45;25.43;;;17.30;;
3253;SDS011;1639;42.804;23.342;2023-12-22T03:50:11;32.77;;;17.90;;
3253;SDS011;1639;42.804;23.342;2023-12-22T03:52:36;23.43;;;16.83;;
3253;SDS011;1639;42.804;23.342;2023-12-22T03:55:01;34.43;;;26.67;;
3253;SDS011;1639;42.804;23.342;2023-12-22T03:57:27;18.83;;;14.83;;
3253;SDS011;1639;42.804;23.342;2023-12-22T03:59:53;24.43;;;14.27;;
3253;SDS011;1639;42.804;23.342;2023-12-22T04:02:18;29.90;;;15.80;;
3253;SDS011;1639;42.804;23.342;2023-12-22T04:04:43;18.97;;;15.37;;
3253;SDS011;1639;42.804;23.342;2023-12-22T04:07:09;19.00;;;15.77;;
3253;SDS011;1639;42.804;23.342;2023-12-22T04:09:36;26.10;;;19.00;;
3253;SDS011;1639;42.804;23.342;2023-12-22T04:12:02;21.40;;;16.77;;
3253;SDS011;1639;42.804;23.342;2023-12-22T04:14:28;24.27;;;16.30;;
3253;SDS011;1639;42.804;23.342;2023-12-22T04:16:53;27.23;;;14.33;;
3253;SDS011;1639;42.804;23.342;2023-12-22T04:19:19;16.30;;;14.57;;
3253;SDS011;1639;42.804;23.342;2023-12-22T04:21:44;15.67;;;14.03;;
3253;SDS011;1639;42.804;23.342;2023-12-22T04:24:09;23.73;;;19.33;;
3253;SDS011;1639;42.804;23.342;2023-12-22T04:26:35;24.00;;;14.87;;
3253;SDS011;1639;42.804;23.342;2023-12-22T04:29:01;23.83;;;16.90;;
3253;SDS011;1639;42.804;23.342;2023-12-22T04:31:26;29.53;;;15.30;;
3253;SDS011;1639;42.804;23.342;2023-12-22T04:33:51;19.67;;;15.07;;
3253;SDS011;1639;42.804;23.342;2023-12-22T04:36:17;15.93;;;11.80;;
3253;SDS011;1639;42.804;23.342;2023-12-22T04:38:42;20.80;;;14.50;;
3253;SDS011;1639;42.804;23.342;2023-12-22T04:41:08;21.33;;;14.43;;
3253;SDS011;1639;42.804;23.342;2023-12-22T04:43:33;21.20;;;14.93;;
3253;SDS011;1639;42.804;23.342;2023-12-22T04:45:58;29.23;;;16.63;;
3253;SDS011;1639;42.804;23.342;2023-12-22T04:48:24;28.47;;;16.50;;
3253;SDS011;1639;42.804;23.342;2023-12-22T04:50:49;20.90;;;18.70;;
3253;SDS011;1639;42.804;23.342;2023-12-22T04:53:14;23.93;;;16.40;;
3253;SDS011;1639;42.804;23.342;2023-12-22T04:55:40;22.53;;;17.67;;
3253;SDS011;1639;42.804;23.342;2023-12-22T04:58:05;17.43;;;14.37;;
3253;SDS011;1639;42.804;23.342;2023-12-22T05:00:31;16.30;;;12.60;;
3253;SDS011;1639;42.804;23.342;2023-12-22T05:02:56;15.40;;;10.93;;
3253;SDS011;1639;42.804;23.342;2023-12-22T05:05:21;29.83;;;16.83;;
3253;SDS011;1639;42.804;23.342;2023-12-22T05:07:47;20.33;;;13.40;;
3253;SDS011;1639;42.804;23.342;2023-12-22T05:10:12;15.30;;;10.27;;
3253;SDS011;1639;42.804;23.342;2023-12-22T05:12:37;16.93;;;11.70;;
3253;SDS011;1639;42.804;23.342;2023-12-22T05:15:03;19.63;;;13.47;;
3253;SDS011;1639;42.804;23.342;2023-12-22T05:17:29;22.33;;;11.17;;
3253;SDS011;1639;42.804;23.342;2023-12-22T05:19:54;28.73;;;11.17;;
3253;SDS011;1639;42.804;23.342;2023-12-22T05:22:20;20.70;;;10.87;;
3253;SDS011;1639;42.804;23.342;2023-12-22T05:24:45;15.63;;;10.07;;
3253;SDS011;1639;42.804;23.342;2023-12-22T05:27:11;15.67;;;9.30;;
3253;SDS011;1639;42.804;23.342;2023-12-22T05:29:36;14.53;;;9.63;;
3253;SDS011;1639;42.804;23.342;2023-12-22T05:32:01;16.63;;;9.07;;
3253;SDS011;1639;42.804;23.342;2023-12-22T05:34:27;18.30;;;10.90;;
3253;SDS011;1639;42.804;23.342;2023-12-22T05:36:52;16.87;;;9.53;;
3253;SDS011;1639;42.804;23.342;2023-12-22T05:39:17;24.00;;;11.60;;
3253;SDS011;1639;42.804;23.342;2023-12-22T05:41:43;20.40;;;11.87;;
3253;SDS011;1639;42.804;23.342;2023-12-22T05:44:08;23.60;;;12.30;;
3253;SDS011;1639;42.804;23.342;2023-12-22T05:46:37;15.03;;;13.50;;
3253;SDS011;1639;42.804;23.342;2023-12-22T05:49:03;23.80;;;16.60;;
3253;SDS011;1639;42.804;23.342;2023-12-22T05:51:29;21.20;;;16.00;;
3253;SDS011;1639;42.804;23.342;2023-12-22T05:53:54;29.00;;;18.37;;
3253;SDS011;1639;42.804;23.342;2023-12-22T05:56:20;26.37;;;19.97;;
3253;SDS011;1639;42.804;23.342;2023-12-22T05:58:46;37.37;;;20.93;;
3253;SDS011;1639;42.804;23.342;2023-12-22T06:01:16;39.63;;;29.37;;
3253;SDS011;1639;42.804;23.342;2023-12-22T06:03:43;38.20;;;26.17;;
3253;SDS011;1639;42.804;23.342;2023-12-22T06:06:11;28.00;;;19.67;;
3253;SDS011;1639;42.804;23.342;2023-12-22T06:08:37;11.57;;;6.40;;
3253;SDS011;1639;42.804;23.342;2023-12-22T06:11:03;7.07;;;3.50;;
3253;SDS011;1639;42.804;23.342;2023-12-22T06:13:29;6.60;;;3.40;;
3253;SDS011;1639;42.804;23.342;2023-12-22T06:15:54;7.73;;;4.13;;
3253;SDS011;1639;42.804;23.342;2023-12-22T06:18:20;6.20;;;3.37;;
3253;SDS011;1639;42.804;23.342;2023-12-22T06:20:45;10.37;;;6.53;;
3253;SDS011;1639;42.804;23.342;2023-12-22T06:23:10;12.17;;;5.30;;
3253;SDS011;1639;42.804;23.342;2023-12-22T06:25:36;8.70;;;4.80;;
3253;SDS011;1639;42.804;23.342;2023-12-22T06:28:01;7.23;;;3.30;;
3253;SDS011;1639;42.804;23.342;2023-12-22T06:30:26;7.40;;;3.90;;
3253;SDS011;1639;42.804;23.342;2023-12-22T06:32:52;17.43;;;10.43;;
3253;SDS011;1639;42.804;23.342;2023-12-22T06:35:17;18.00;;;14.17;;
3253;SDS011;1639;42.804;23.342;2023-12-22T06:37:48;21.13;;;12.40;;
3253;SDS011;1639;42.804;23.342;2023-12-22T06:40:14;13.33;;;8.93;;
3253;SDS011;1639;42.804;23.342;2023-12-22T06:42:39;9.27;;;4.57;;
3253;SDS011;1639;42.804;23.342;2023-12-22T06:45:05;14.10;;;9.23;;
3253;SDS011;1639;42.804;23.342;2023-12-22T06:47:31;10.67;;;7.30;;
3253;SDS011;1639;42.804;23.342;2023-12-22T06:49:56;8.10;;;4.63;;
3253;SDS011;1639;42.804;23.342;2023-12-22T06:52:21;12.63;;;6.07;;
3253;SDS011;1639;42.804;23.342;2023-12-22T06:54:47;12.40;;;4.00;;
3253;SDS011;1639;42.804;23.342;2023-12-22T06:57:12;9.70;;;4.30;;
3253;SDS011;1639;42.804;23.342;2023-12-22T06:59:38;8.77;;;5.57;;
3253;SDS011;1639;42.804;23.342;2023-12-22T07:02:04;9.10;;;5.23;;
3253;SDS011;1639;42.804;23.342;2023-12-22T07:04:29;9.50;;;5.00;;
3253;SDS011;1639;42.804;23.342;2023-12-22T07:06:55;9.30;;;5.00;;
3253;SDS011;1639;42.804;23.342;2023-12-22T07:11:48;9.20;;;5.50;;
3253;SDS011;1639;42.804;23.342;2023-12-22T07:14:18;7.20;;;4.53;;
3253;SDS011;1639;42.804;23.342;2023-12-22T07:16:43;13.43;;;5.30;;
3253;SDS011;1639;42.804;23.342;2023-12-22T07:19:09;10.10;;;4.63;;
3253;SDS011;1639;42.804;23.342;2023-12-22T07:21:38;7.40;;;3.70;;
3253;SDS011;1639;42.804;23.342;2023-12-22T07:24:05;9.30;;;3.70;;
3253;SDS011;1639;42.804;23.342;2023-12-22T07:26:30;8.47;;;3.53;;
3253;SDS011;1639;42.804;23.342;2023-12-22T07:28:56;7.10;;;4.13;;
3253;SDS011;1639;42.804;23.342;2023-12-22T07:31:21;8.23;;;3.60;;
3253;SDS011;1639;42.804;23.342;2023-12-22T07:33:47;15.53;;;4.40;;
3253;SDS011;1639;42.804;23.342;2023-12-22T07:36:12;6.93;;;3.13;;
3253;SDS011;1639;42.804;23.342;2023-12-22T07:38:38;7.67;;;3.67;;
3253;SDS011;1639;42.804;23.342;2023-12-22T07:41:06;10.03;;;4.50;;
3253;SDS011;1639;42.804;23.342;2023-12-22T07:43:32;7.60;;;3.80;;
3253;SDS011;1639;42.804;23.342;2023-12-22T07:45:57;12.40;;;3.90;;
3253;SDS011;1639;42.804;23.342;2023-12-22T07:48:23;8.67;;;3.60;;
3253;SDS011;1639;42.804;23.342;2023-12-22T07:50:49;7.50;;;4.00;;
3253;SDS011;1639;42.804;23.342;2023-12-22T07:53:14;7.47;;;3.93;;
3253;SDS011;1639;42.804;23.342;2023-12-22T07:55:40;9.67;;;3.93;;
3253;SDS011;1639;42.804;23.342;2023-12-22T07:58:05;6.80;;;3.53;;
3253;SDS011;1639;42.804;23.342;2023-12-22T08:00:31;11.60;;;5.30;;
3253;SDS011;1639;42.804;23.342;2023-12-22T08:02:57;9.43;;;4.40;;
3253;SDS011;1639;42.804;23.342;2023-12-22T08:05:22;7.20;;;3.27;;
3253;SDS011;1639;42.804;23.342;2023-12-22T08:07:47;6.63;;;3.53;;
3253;SDS011;1639;42.804;23.342;2023-12-22T08:10:13;7.60;;;4.00;;
3253;SDS011;1639;42.804;23.342;2023-12-22T08:12:38;7.60;;;4.03;;
3253;SDS011;1639;42.804;23.342;2023-12-22T08:15:04;6.93;;;3.30;;
3253;SDS011;1639;42.804;23.342;2023-12-22T08:17:30;6.77;;;3.80;;
3253;SDS011;1639;42.804;23.342;2023-12-22T08:19:56;10.60;;;3.97;;
3253;SDS011;1639;42.804;23.342;2023-12-22T08:22:22;8.97;;;4.03;;
3253;SDS011;1639;42.804;23.342;2023-12-22T08:24:47;9.10;;;4.50;;
3253;SDS011;1639;42.804;23.342;2023-12-22T08:27:13;8.20;;;4.97;;
3253;SDS011;1639;42.804;23.342;2023-12-22T08:29:38;7.07;;;4.40;;
3253;SDS011;1639;42.804;23.342;2023-12-22T08:32:04;7.47;;;4.43;;
3253;SDS011;1639;42.804;23.342;2023-12-22T08:34:29;8.53;;;5.07;;
3253;SDS011;1639;42.804;23.342;2023-12-22T08:36:55;7.50;;;3.93;;
3253;SDS011;1639;42.804;23.342;2023-12-22T08:39:20;9.20;;;5.60;;
3253;SDS011;1639;42.804;23.342;2023-12-22T08:41:46;8.90;;;5.50;;
3253;SDS011;1639;42.804;23.342;2023-12-22T08:44:12;7.07;;;3.80;;
3253;SDS011;1639;42.804;23.342;2023-12-22T08:46:41;9.90;;;4.70;;
3253;SDS011;1639;42.804;23.342;2023-12-22T08:49:07;34.23;;;23.07;;
3253;SDS011;1639;42.804;23.342;2023-12-22T08:51:32;10.77;;;6.00;;
3253;SDS011;1639;42.804;23.342;2023-12-22T08:54:01;8.07;;;4.30;;
3253;SDS011;1639;42.804;23.342;2023-12-22T08:56:26;9.00;;;4.80;;
3253;SDS011;1639;42.804;23.342;2023-12-22T08:58:52;14.63;;;5.47;;
3253;SDS011;1639;42.804;23.342;2023-12-22T09:01:20;9.13;;;4.07;;
3253;SDS011;1639;42.804;23.342;2023-12-22T09:03:47;8.20;;;4.47;;
3253;SDS011;1639;42.804;23.342;2023-12-22T09:06:19;7.30;;;4.13;;
3253;SDS011;1639;42.804;23.342;2023-12-22T09:08:47;8.03;;;4.00;;
3253;SDS011;1639;42.804;23.342;2023-12-22T09:11:13;7.67;;;4.30;;
3253;SDS011;1639;42.804;23.342;2023-12-22T09:13:40;8.83;;;4.00;;
3253;SDS011;1639;42.804;23.342;2023-12-22T09:16:06;17.90;;;5.33;;
3253;SDS011;1639;42.804;23.342;2023-12-22T09:18:32;11.30;;;4.97;;
3253;SDS011;1639;42.804;23.342;2023-12-22T09:20:58;10.43;;;4.93;;
3253;SDS011;1639;42.804;23.342;2023-12-22T09:23:23;7.67;;;3.87;;
3253;SDS011;1639;42.804;23.342;2023-12-22T09:25:49;7.37;;;5.27;;
3253;SDS011;1639;42.804;23.342;2023-12-22T09:28:14;8.67;;;4.90;;
3253;SDS011;1639;42.804;23.342;2023-12-22T09:30:40;6.80;;;4.00;;
3253;SDS011;1639;42.804;23.342;2023-12-22T09:33:06;9.97;;;4.27;;
3253;SDS011;1639;42.804;23.342;2023-12-22T09:35:33;8.60;;;5.47;;
3253;SDS011;1639;42.804;23.342;2023-12-22T09:37:58;9.07;;;5.37;;
3253;SDS011;1639;42.804;23.342;2023-12-22T09:40:23;11.70;;;4.97;;
3253;SDS011;1639;42.804;23.342;2023-12-22T09:42:49;13.03;;;5.43;;
3253;SDS011;1639;42.804;23.342;2023-12-22T09:45:18;11.07;;;5.23;;
3253;SDS011;1639;42.804;23.342;2023-12-22T09:47:45;12.17;;;5.80;;
3253;SDS011;1639;42.804;23.342;2023-12-22T09:50:12;10.67;;;5.60;;
3253;SDS011;1639;42.804;23.342;2023-12-22T09:52:40;7.83;;;4.27;;
3253;SDS011;1639;42.804;23.342;2023-12-22T09:55:09;8.10;;;4.97;;
3253;SDS011;1639;42.804;23.342;2023-12-22T09:57:35;9.63;;;5.10;;
3253;SDS011;1639;42.804;23.342;2023-12-22T10:00:02;13.93;;;6.90;;
3253;SDS011;1639;42.804;23.342;2023-12-22T10:02:31;8.37;;;5.30;;
3253;SDS011;1639;42.804;23.342;2023-12-22T10:04:58;10.43;;;4.73;;
3253;SDS011;1639;42.804;23.342;2023-12-22T10:07:24;9.30;;;4.90;;
3253;SDS011;1639;42.804;23.342;2023-12-22T10:09:51;7.70;;;5.77;;
3253;SDS011;1639;42.804;23.342;2023-12-22T10:12:18;14.73;;;5.80;;
3253;SDS011;1639;42.804;23.342;2023-12-22T10:14:45;9.20;;;4.77;;
3253;SDS011;1639;42.804;23.342;2023-12-22T10:17:12;8.83;;;5.40;;
3253;SDS011;1639;42.804;23.342;2023-12-22T10:19:39;13.40;;;5.30;;
3253;SDS011;1639;42.804;23.342;2023-12-22T10:22:04;10.73;;;6.30;;
3253;SDS011;1639;42.804;23.342;2023-12-22T10:24:36;11.87;;;5.47;;
3253;SDS011;1639;42.804;23.342;2023-12-22T10:27:09;12.80;;;8.90;;
3253;SDS011;1639;42.804;23.342;2023-12-22T10:29:35;14.23;;;8.40;;
3253;SDS011;1639;42.804;23.342;2023-12-22T10:32:01;8.43;;;4.90;;
3253;SDS011;1639;42.804;23.342;2023-12-22T10:34:28;9.00;;;5.40;;
3253;SDS011;1639;42.804;23.342;2023-12-22T10:36:53;9.83;;;6.37;;
3253;SDS011;1639;42.804;23.342;2023-12-22T10:39:19;10.67;;;5.90;;
3253;SDS011;1639;42.804;23.342;2023-12-22T10:41:46;7.93;;;4.87;;
3253;SDS011;1639;42.804;23.342;2023-12-22T10:44:11;7.17;;;3.43;;
3253;SDS011;1639;42.804;23.342;2023-12-22T10:46:37;6.90;;;2.67;;
3253;SDS011;1639;42.804;23.342;2023-12-22T10:49:02;10.00;;;3.57;;
3253;SDS011;1639;42.804;23.342;2023-12-22T10:51:29;6.87;;;3.67;;
3253;SDS011;1639;42.804;23.342;2023-12-22T10:53:57;7.20;;;4.20;;
3253;SDS011;1639;42.804;23.342;2023-12-22T10:56:23;6.40;;;3.30;;
3253;SDS011;1639;42.804;23.342;2023-12-22T10:58:50;8.20;;;3.83;;
3253;SDS011;1639;42.804;23.342;2023-12-22T11:01:17;6.37;;;2.80;;
3253;SDS011;1639;42.804;23.342;2023-12-22T11:03:45;7.00;;;2.83;;
3253;SDS011;1639;42.804;23.342;2023-12-22T11:06:15;5.90;;;2.20;;
3253;SDS011;1639;42.804;23.342;2023-12-22T11:08:41;6.10;;;2.53;;
3253;SDS011;1639;42.804;23.342;2023-12-22T11:11:20;5.40;;;2.10;;
3253;SDS011;1639;42.804;23.342;2023-12-22T11:13:52;5.50;;;2.00;;
3253;SDS011;1639;42.804;23.342;2023-12-22T11:16:20;5.80;;;2.00;;
3253;SDS011;1639;42.804;23.342;2023-12-22T11:18:48;5.70;;;2.20;;
3253;SDS011;1639;42.804;23.342;2023-12-22T11:21:14;5.83;;;2.30;;
3253;SDS011;1639;42.804;23.342;2023-12-22T11:23:41;6.57;;;3.13;;
3253;SDS011;1639;42.804;23.342;2023-12-22T11:26:08;6.67;;;2.80;;
3253;SDS011;1639;42.804;23.342;2023-12-22T11:28:36;6.10;;;2.80;;
3253;SDS011;1639;42.804;23.342;2023-12-22T11:31:05;6.17;;;2.57;;
3253;SDS011;1639;42.804;23.342;2023-12-22T11:33:34;6.57;;;3.10;;
3253;SDS011;1639;42.804;23.342;2023-12-22T11:36:03;7.50;;;3.30;;
3253;SDS011;1639;42.804;23.342;2023-12-22T11:38:28;8.73;;;2.90;;
3253;SDS011;1639;42.804;23.342;2023-12-22T11:40:54;5.93;;;2.40;;
3253;SDS011;1639;42.804;23.342;2023-12-22T11:43:20;7.57;;;2.87;;
3253;SDS011;1639;42.804;23.342;2023-12-22T11:45:48;8.40;;;3.33;;
3253;SDS011;1639;42.804;23.342;2023-12-22T11:48:14;6.30;;;3.27;;
3253;SDS011;1639;42.804;23.342;2023-12-22T11:50:41;10.43;;;4.30;;
3253;SDS011;1639;42.804;23.342;2023-12-22T11:58:40;6.43;;;3.27;;
3253;SDS011;1639;42.804;23.342;2023-12-22T12:01:23;6.27;;;2.93;;
3253;SDS011;1639;42.804;23.342;2023-12-22T12:03:49;9.37;;;3.63;;
3253;SDS011;1639;42.804;23.342;2023-12-22T12:08:54;6.00;;;3.00;;
3253;SDS011;1639;42.804;23.342;2023-12-22T12:11:21;6.67;;;3.13;;
3253;SDS011;1639;42.804;23.342;2023-12-22T12:13:47;7.67;;;2.83;;
3253;SDS011;1639;42.804;23.342;2023-12-22T12:16:14;6.27;;;2.53;;
3253;SDS011;1639;42.804;23.342;2023-12-22T12:18:44;6.87;;;2.73;;
3253;SDS011;1639;42.804;23.342;2023-12-22T12:21:10;5.60;;;2.50;;
3253;SDS011;1639;42.804;23.342;2023-12-22T12:23:36;13.40;;;2.90;;
3253;SDS011;1639;42.804;23.342;2023-12-22T12:26:03;6.70;;;2.90;;
3253;SDS011;1639;42.804;23.342;2023-12-22T12:28:31;6.47;;;2.40;;
3253;SDS011;1639;42.804;23.342;2023-12-22T12:31:01;6.33;;;2.60;;
3253;SDS011;1639;42.804;23.342;2023-12-22T12:33:29;7.13;;;4.40;;
3253;SDS011;1639;42.804;23.342;2023-12-22T12:36:02;7.27;;;3.63;;
3253;SDS011;1639;42.804;23.342;2023-12-22T12:41:32;8.93;;;4.10;;
3253;SDS011;1639;42.804;23.342;2023-12-22T12:44:05;13.83;;;5.00;;
3253;SDS011;1639;42.804;23.342;2023-12-22T12:46:32;9.03;;;5.20;;
3253;SDS011;1639;42.804;23.342;2023-12-22T12:49:04;7.00;;;3.67;;
3253;SDS011;1639;42.804;23.342;2023-12-22T12:51:35;7.27;;;4.77;;
3253;SDS011;1639;42.804;23.342;2023-12-22T12:54:02;6.30;;;3.80;;
3253;SDS011;1639;42.804;23.342;2023-12-22T12:56:28;7.40;;;3.20;;
3253;SDS011;1639;42.804;23.342;2023-12-22T12:58:53;7.30;;;3.33;;
3253;SDS011;1639;42.804;23.342;2023-12-22T13:01:19;6.30;;;3.23;;
3253;SDS011;1639;42.804;23.342;2023-12-22T13:03:51;7.30;;;4.10;;
3253;SDS011;1639;42.804;23.342;2023-12-22T13:06:19;8.40;;;4.03;;
3253;SDS011;1639;42.804;23.342;2023-12-22T13:08:52;7.63;;;4.23;;
3253;SDS011;1639;42.804;23.342;2023-12-22T13:11:24;6.80;;;3.30;;
3253;SDS011;1639;42.804;23.342;2023-12-22T13:13:51;9.37;;;4.17;;
3253;SDS011;1639;42.804;23.342;2023-12-22T13:16:18;17.13;;;7.93;;
3253;SDS011;1639;42.804;23.342;2023-12-22T13:18:45;10.00;;;5.30;;
3253;SDS011;1639;42.804;23.342;2023-12-22T13:21:11;8.83;;;5.40;;
3253;SDS011;1639;42.804;23.342;2023-12-22T13:23:37;7.90;;;6.20;;
3253;SDS011;1639;42.804;23.342;2023-12-22T13:26:02;9.10;;;5.90;;
3253;SDS011;1639;42.804;23.342;2023-12-22T13:28:28;8.20;;;5.20;;
3253;SDS011;1639;42.804;23.342;2023-12-22T13:30:54;10.33;;;5.93;;
3253;SDS011;1639;42.804;23.342;2023-12-22T13:33:20;12.40;;;6.00;;
3253;SDS011;1639;42.804;23.342;2023-12-22T13:35:45;21.33;;;17.20;;
3253;SDS011;1639;42.804;23.342;2023-12-22T13:38:12;15.63;;;8.07;;
3253;SDS011;1639;42.804;23.342;2023-12-22T13:40:38;18.00;;;8.57;;
3253;SDS011;1639;42.804;23.342;2023-12-22T13:43:04;7.50;;;4.20;;
3253;SDS011;1639;42.804;23.342;2023-12-22T13:45:32;9.73;;;4.20;;
3253;SDS011;1639;42.804;23.342;2023-12-22T13:47:58;8.20;;;4.40;;
3253;SDS011;1639;42.804;23.342;2023-12-22T13:50:23;7.67;;;3.67;;
3253;SDS011;1639;42.804;23.342;2023-12-22T13:52:49;6.77;;;3.80;;
3253;SDS011;1639;42.804;23.342;2023-12-22T13:55:16;8.70;;;4.13;;
3253;SDS011;1639;42.804;23.342;2023-12-22T13:57:42;9.13;;;4.30;;
3253;SDS011;1639;42.804;23.342;2023-12-22T14:02:46;6.60;;;3.83;;
3253;SDS011;1639;42.804;23.342;2023-12-22T14:05:14;7.77;;;4.23;;
3253;SDS011;1639;42.804;23.342;2023-12-22T14:07:40;18.97;;;12.63;;
3253;SDS011;1639;42.804;23.342;2023-12-22T14:10:05;15.90;;;10.93;;
3253;SDS011;1639;42.804;23.342;2023-12-22T14:12:31;7.57;;;5.00;;
3253;SDS011;1639;42.804;23.342;2023-12-22T14:14:57;7.70;;;5.77;;
3253;SDS011;1639;42.804;23.342;2023-12-22T14:17:22;7.73;;;4.00;;
3253;SDS011;1639;42.804;23.342;2023-12-22T14:19:47;7.80;;;4.07;;
3253;SDS011;1639;42.804;23.342;2023-12-22T14:22:14;6.67;;;3.07;;
3253;SDS011;1639;42.804;23.342;2023-12-22T14:24:40;8.63;;;5.20;;
3253;SDS011;1639;42.804;23.342;2023-12-22T14:27:05;7.00;;;4.03;;
3253;SDS011;1639;42.804;23.342;2023-12-22T14:29:31;6.00;;;3.50;;
3253;SDS011;1639;42.804;23.342;2023-12-22T14:31:56;12.43;;;4.53;;
3253;SDS011;1639;42.804;23.342;2023-12-22T14:34:21;11.97;;;6.53;;
3253;SDS011;1639;42.804;23.342;2023-12-22T14:36:47;9.30;;;4.90;;
3253;SDS011;1639;42.804;23.342;2023-12-22T14:39:12;8.47;;;6.03;;
3253;SDS011;1639;42.804;23.342;2023-12-22T14:41:41;9.00;;;5.47;;
3253;SDS011;1639;42.804;23.342;2023-12-22T14:44:07;8.13;;;4.73;;
3253;SDS011;1639;42.804;23.342;2023-12-22T14:46:36;8.13;;;4.80;;
3253;SDS011;1639;42.804;23.342;2023-12-22T14:49:02;8.57;;;4.83;;
3253;SDS011;1639;42.804;23.342;2023-12-22T14:51:27;8.13;;;5.27;;
3253;SDS011;1639;42.804;23.342;2023-12-22T14:53:53;13.20;;;6.93;;
3253;SDS011;1639;42.804;23.342;2023-12-22T14:56:18;13.13;;;8.50;;
3253;SDS011;1639;42.804;23.342;2023-12-22T14:58:43;14.80;;;10.90;;